createdAt,value
2022-10-01T00:02:22.346Z,11.27
2022-10-01T00:04:50.859Z,14.02
2022-10-01T00:07:21.408Z,12.93
2022-10-01T00:09:49.563Z,13.20
2022-10-01T00:12:17.729Z,12.95
2022-10-01T00:14:47.417Z,28.85
2022-10-01T00:17:15.663Z,19.05
2022-10-01T00:19:43.850Z,12.25
2022-10-01T00:22:12.093Z,16.10
2022-10-01T00:24:41.736Z,12.07
2022-10-01T00:27:11.333Z,15.68
2022-10-01T00:29:39.621Z,16.92
2022-10-01T00:32:10.059Z,17.10
2022-10-01T00:34:38.230Z,9.77
2022-10-01T00:37:06.520Z,13.95
2022-10-01T00:39:34.678Z,19.65
2022-10-01T00:42:04.843Z,8.55
2022-10-01T00:44:35.533Z,12.20
2022-10-01T00:47:11.669Z,6.63
2022-10-01T00:49:43.863Z,9.77
2022-10-01T00:52:19.930Z,8.52
2022-10-01T00:54:52.463Z,11.32
2022-10-01T00:57:26.585Z,16.88
2022-10-01T00:59:57.909Z,6.80
2022-10-01T01:02:26.328Z,7.47
2022-10-01T01:04:54.563Z,12.63
2022-10-01T01:07:23.661Z,11.18
2022-10-01T01:09:53.615Z,9.63
2022-10-01T01:12:48.420Z,6.63
2022-10-01T01:15:22.942Z,6.78
2022-10-01T01:17:59.495Z,11.40
2022-10-01T01:20:57.148Z,12.27
2022-10-01T01:23:43.932Z,19.23
2022-10-01T01:26:24.618Z,9.70
2022-10-01T01:28:59.097Z,13.65
2022-10-01T01:31:34.548Z,13.65
2022-10-01T01:34:12.403Z,15.48
2022-10-01T01:36:45.773Z,12.68
2022-10-01T01:39:18.251Z,12.35
2022-10-01T01:41:51.181Z,13.23
2022-10-01T01:44:25.733Z,20.48
2022-10-01T01:46:57.014Z,18.08
2022-10-01T01:49:25.972Z,12.93
2022-10-01T01:52:02.626Z,18.88
2022-10-01T01:54:30.845Z,26.30
2022-10-01T01:57:00.113Z,16.35
2022-10-01T01:59:30.235Z,20.73
2022-10-01T02:01:59.175Z,15.57
2022-10-01T02:04:32.232Z,10.18
2022-10-01T02:07:22.329Z,16.55
2022-10-01T02:09:57.543Z,13.93
2022-10-01T02:12:39.000Z,10.57
2022-10-01T02:15:13.228Z,4.00
2022-10-01T02:17:53.107Z,4.00
2022-10-01T02:20:30.225Z,7.55
2022-10-01T02:23:03.752Z,7.85
2022-10-01T02:25:38.672Z,11.50
2022-10-01T02:28:11.136Z,11.23
2022-10-01T02:30:44.411Z,6.47
2022-10-01T02:33:16.378Z,6.65
2022-10-01T02:35:47.248Z,7.32
2022-10-01T02:38:16.999Z,9.60
2022-10-01T02:40:48.863Z,5.65
2022-10-01T02:43:20.064Z,8.75
2022-10-01T02:45:56.623Z,10.45
2022-10-01T02:48:26.183Z,9.75
2022-10-01T02:50:58.680Z,13.55
2022-10-01T02:53:32.745Z,11.60
2022-10-01T02:56:04.240Z,18.63
2022-10-01T02:58:31.583Z,14.55
2022-10-01T03:01:01.232Z,17.02
2022-10-01T03:03:31.193Z,10.60
2022-10-01T03:05:59.451Z,17.85
2022-10-01T03:08:27.677Z,24.65
2022-10-01T03:10:55.902Z,23.20
2022-10-01T03:13:24.771Z,22.13
2022-10-01T03:15:53.091Z,22.00
2022-10-01T03:18:22.728Z,25.33
2022-10-01T03:20:50.905Z,12.18
2022-10-01T03:23:19.356Z,16.00
2022-10-01T03:25:47.561Z,30.23
2022-10-01T03:28:16.370Z,27.77
2022-10-01T03:30:45.437Z,16.40
2022-10-01T03:33:14.595Z,17.83
2022-10-01T03:35:44.206Z,17.65
2022-10-01T03:38:13.857Z,16.13
2022-10-01T03:40:42.126Z,26.42
2022-10-01T03:43:10.414Z,29.38
2022-10-01T03:45:39.513Z,21.80
2022-10-01T03:48:07.781Z,20.30
2022-10-01T03:50:36.782Z,19.90
2022-10-01T03:53:07.247Z,17.98
2022-10-01T03:55:35.548Z,18.95
2022-10-01T03:58:03.789Z,20.75
2022-10-01T04:00:32.020Z,24.05
2022-10-01T04:03:00.284Z,20.13
2022-10-01T04:05:28.562Z,20.15
2022-10-01T04:07:56.709Z,14.57
2022-10-01T04:10:26.500Z,25.42
2022-10-01T04:12:55.697Z,17.02
2022-10-01T04:15:25.111Z,21.98
2022-10-01T04:17:53.527Z,28.90
2022-10-01T04:20:22.234Z,24.13
2022-10-01T04:22:50.418Z,21.02
2022-10-01T04:25:18.946Z,28.85
2022-10-01T04:27:58.774Z,25.60
2022-10-01T04:30:28.612Z,28.23
2022-10-01T04:32:57.196Z,23.88
2022-10-01T04:35:25.998Z,28.35
2022-10-01T04:37:59.202Z,20.60
2022-10-01T04:40:27.440Z,29.90
2022-10-01T04:42:57.388Z,21.55
2022-10-01T04:45:25.662Z,16.42
2022-10-01T04:47:55.218Z,28.52
2022-10-01T04:50:25.085Z,35.60
2022-10-01T04:52:54.033Z,22.02
2022-10-01T04:55:23.451Z,25.02
2022-10-01T04:57:51.853Z,26.80
2022-10-01T05:00:24.553Z,22.25
2022-10-01T05:02:53.788Z,20.27
2022-10-01T05:05:25.011Z,19.35
2022-10-01T05:07:54.199Z,16.65
2022-10-01T05:10:25.057Z,28.15
2022-10-01T05:12:53.261Z,23.80
2022-10-01T05:15:22.922Z,25.00
2022-10-01T05:17:51.104Z,19.60
2022-10-01T05:20:21.073Z,9.73
2022-10-01T05:22:50.198Z,18.88
2022-10-01T05:25:19.764Z,23.10
2022-10-01T05:27:48.473Z,16.98
2022-10-01T05:30:24.350Z,17.80
2022-10-01T05:32:58.897Z,31.00
2022-10-01T05:35:27.910Z,24.13
2022-10-01T05:37:57.708Z,27.75
2022-10-01T05:40:27.492Z,22.08
2022-10-01T05:42:56.613Z,25.02
2022-10-01T05:45:25.065Z,15.55
2022-10-01T05:48:02.754Z,25.17
2022-10-01T05:50:33.196Z,13.50
2022-10-01T05:53:02.131Z,15.93
2022-10-01T05:55:34.571Z,32.50
2022-10-01T05:58:05.990Z,21.02
2022-10-01T06:00:35.988Z,24.75
2022-10-01T06:03:07.334Z,21.63
2022-10-01T06:05:37.991Z,13.02
2022-10-01T06:08:07.325Z,24.45
2022-10-01T06:10:36.928Z,15.15
2022-10-01T06:13:06.144Z,25.08
2022-10-01T06:15:37.771Z,20.52
2022-10-01T06:18:09.251Z,29.05
2022-10-01T06:20:37.863Z,20.75
2022-10-01T06:23:07.532Z,20.02
2022-10-01T06:25:37.273Z,13.57
2022-10-01T06:28:07.326Z,17.58
2022-10-01T06:30:38.239Z,22.98
2022-10-01T06:33:09.603Z,19.90
2022-10-01T06:35:42.594Z,8.50
2022-10-01T06:38:11.591Z,27.75
2022-10-01T06:40:40.479Z,35.03
2022-10-01T06:43:10.615Z,23.42
2022-10-01T06:45:43.017Z,18.33
2022-10-01T06:48:15.233Z,24.80
2022-10-01T06:50:45.031Z,17.95
2022-10-01T06:53:15.957Z,34.40
2022-10-01T06:55:46.252Z,19.10
2022-10-01T06:58:16.992Z,26.98
2022-10-01T07:00:46.089Z,24.02
2022-10-01T07:03:18.412Z,10.93
2022-10-01T07:08:16.312Z,19.83
2022-10-01T07:10:45.649Z,32.90
2022-10-01T07:13:16.535Z,26.17
2022-10-01T07:15:45.066Z,32.38
2022-10-01T07:18:15.448Z,20.40
2022-10-01T07:20:43.782Z,24.75
2022-10-01T07:23:13.342Z,14.27
2022-10-01T07:25:42.629Z,24.20
2022-10-01T07:28:16.864Z,18.80
2022-10-01T07:30:48.693Z,22.73
2022-10-01T07:33:20.903Z,20.98
2022-10-01T07:35:49.434Z,23.08
2022-10-01T07:38:17.614Z,34.88
2022-10-01T07:40:45.851Z,25.27
2022-10-01T07:43:14.728Z,16.40
2022-10-01T07:45:43.141Z,22.27
2022-10-01T07:48:11.411Z,17.42
2022-10-01T07:50:40.968Z,18.92
2022-10-01T07:53:09.212Z,24.02
2022-10-01T07:55:37.353Z,19.13
2022-10-01T07:58:06.349Z,21.13
2022-10-01T08:00:35.735Z,18.48
2022-10-01T08:03:03.954Z,17.48
2022-10-01T08:05:33.606Z,24.05
2022-10-01T08:08:05.136Z,24.98
2022-10-01T08:10:36.800Z,16.95
2022-10-01T08:13:08.314Z,30.73
2022-10-01T08:15:37.087Z,28.10
2022-10-01T08:18:05.992Z,19.27
2022-10-01T08:20:34.221Z,26.90
2022-10-01T08:23:08.703Z,19.55
2022-10-01T08:25:37.121Z,21.63
2022-10-01T08:28:06.302Z,22.27
2022-10-01T08:30:34.840Z,19.38
2022-10-01T08:33:04.071Z,24.15
2022-10-01T08:35:32.637Z,15.60
2022-10-01T08:38:03.085Z,14.48
2022-10-01T08:40:38.287Z,20.73
2022-10-01T08:43:08.310Z,20.13
2022-10-01T08:45:41.816Z,18.52
2022-10-01T08:48:21.998Z,20.30
2022-10-01T08:50:56.371Z,26.42
2022-10-01T08:53:31.491Z,20.05
2022-10-01T08:56:02.921Z,27.25
2022-10-01T08:58:44.476Z,20.00
2022-10-01T09:01:13.512Z,16.92
2022-10-01T09:03:42.411Z,20.52
2022-10-01T09:06:21.904Z,21.77
2022-10-01T09:09:10.715Z,17.85
2022-10-01T09:11:58.773Z,13.23
2022-10-01T09:14:38.953Z,17.42
2022-10-01T09:17:15.171Z,16.70
2022-10-01T09:20:00.198Z,18.92
2022-10-01T09:22:38.888Z,21.23
2022-10-01T09:25:22.929Z,22.30
2022-10-01T09:27:53.821Z,25.52
2022-10-01T09:30:25.244Z,23.67
2022-10-01T09:32:57.417Z,19.30
2022-10-01T09:38:04.818Z,21.83
2022-10-01T09:40:39.821Z,23.80
2022-10-01T09:43:13.162Z,11.27
2022-10-01T09:45:42.252Z,13.90
2022-10-01T09:48:21.363Z,27.10
2022-10-01T09:50:58.312Z,23.02
2022-10-01T09:53:35.074Z,20.90
2022-10-01T09:56:11.579Z,21.30
2022-10-01T09:58:47.789Z,20.23
2022-10-01T10:01:25.046Z,21.27
2022-10-01T10:03:58.355Z,18.60
2022-10-01T10:06:33.030Z,19.77
2022-10-01T10:09:02.983Z,19.88
2022-10-01T10:11:33.117Z,18.25
2022-10-01T10:14:04.650Z,14.98
2022-10-01T10:16:36.150Z,14.63
2022-10-01T10:19:09.736Z,13.32
2022-10-01T10:21:39.345Z,16.90
2022-10-01T10:24:23.439Z,21.67
2022-10-01T10:26:56.093Z,18.55
2022-10-01T10:29:31.695Z,15.10
2022-10-01T10:32:00.949Z,18.88
2022-10-01T10:34:33.911Z,12.57
2022-10-01T10:37:06.272Z,11.98
2022-10-01T10:42:07.430Z,17.88
2022-10-01T10:44:40.230Z,21.08
2022-10-01T10:47:12.009Z,14.65
2022-10-01T10:49:46.439Z,21.38
2022-10-01T10:52:25.359Z,21.30
2022-10-01T10:54:54.187Z,16.73
2022-10-01T10:57:27.907Z,24.27
2022-10-01T10:59:59.741Z,20.83
2022-10-01T11:02:30.872Z,16.42
2022-10-01T11:05:01.598Z,17.83
2022-10-01T11:07:31.720Z,12.53
2022-10-01T11:10:28.301Z,20.90
2022-10-01T11:13:19.672Z,20.30
2022-10-01T11:16:00.344Z,14.65
2022-10-01T11:19:01.354Z,18.40
2022-10-01T11:21:51.577Z,11.38
2022-10-01T11:24:40.799Z,9.95
2022-10-01T11:27:17.093Z,16.35
2022-10-01T11:29:56.216Z,12.27
2022-10-01T11:32:34.701Z,14.40
2022-10-01T11:35:16.874Z,10.43
2022-10-01T11:40:25.587Z,14.02
2022-10-01T11:42:59.760Z,10.93
2022-10-01T11:45:33.139Z,20.30
2022-10-01T11:48:08.697Z,13.18
2022-10-01T11:50:41.922Z,14.10
2022-10-01T11:53:17.000Z,14.68
2022-10-01T11:56:24.827Z,15.93
2022-10-01T11:58:57.686Z,11.00
2022-10-01T12:01:37.068Z,11.35
2022-10-01T12:04:30.199Z,16.45
2022-10-01T12:07:04.608Z,13.23
2022-10-01T12:09:40.852Z,11.45
2022-10-01T12:12:17.302Z,13.63
2022-10-01T12:14:51.889Z,14.05
2022-10-01T12:17:24.895Z,14.52
2022-10-01T12:19:58.328Z,16.40
2022-10-01T12:22:31.448Z,19.05
2022-10-01T12:24:59.632Z,13.80
2022-10-01T12:27:41.178Z,17.65
2022-10-01T12:30:12.701Z,17.77
2022-10-01T12:32:56.878Z,13.30
2022-10-01T12:35:40.162Z,14.70
2022-10-01T12:38:18.694Z,13.80
2022-10-01T12:40:51.053Z,15.90
2022-10-01T12:46:24.818Z,14.15
2022-10-01T12:51:41.128Z,9.15
2022-10-01T12:54:26.295Z,11.68
2022-10-01T12:57:04.205Z,14.07
2022-10-01T12:59:53.238Z,12.68
2022-10-01T13:02:39.419Z,11.88
2022-10-01T13:05:21.388Z,16.23
2022-10-01T13:08:04.197Z,13.40
2022-10-01T13:10:53.552Z,9.52
2022-10-01T13:13:26.758Z,20.65
2022-10-01T13:16:09.212Z,12.93
2022-10-01T13:18:52.693Z,19.33
2022-10-01T13:21:32.378Z,14.25
2022-10-01T13:24:09.561Z,19.67
2022-10-01T13:26:48.368Z,15.15
2022-10-01T13:29:29.244Z,13.15
2022-10-01T13:31:59.399Z,13.95
2022-10-01T13:34:36.339Z,15.85
2022-10-01T13:37:15.604Z,18.85
2022-10-01T13:39:46.078Z,13.80
2022-10-01T13:42:27.455Z,17.73
2022-10-01T13:44:58.055Z,14.87
2022-10-01T13:47:27.080Z,15.55
2022-10-01T13:49:59.737Z,13.27
2022-10-01T13:52:28.537Z,14.35
2022-10-01T13:55:00.233Z,14.00
2022-10-01T13:57:35.152Z,10.68
2022-10-01T14:00:22.619Z,16.95
2022-10-01T14:03:04.100Z,18.17
2022-10-01T14:05:37.552Z,7.57
2022-10-01T14:08:15.457Z,13.63
2022-10-01T14:11:06.736Z,13.68
2022-10-01T14:14:04.396Z,16.15
2022-10-01T14:16:37.694Z,19.75
2022-10-01T14:19:06.074Z,17.75
2022-10-01T14:21:51.343Z,11.98
2022-10-01T14:24:28.515Z,13.77
2022-10-01T14:27:04.104Z,12.50
2022-10-01T14:29:47.960Z,8.52
2022-10-01T14:32:31.630Z,15.88
2022-10-01T14:35:19.403Z,9.45
2022-10-01T14:37:48.113Z,14.82
2022-10-01T14:40:19.280Z,21.92
2022-10-01T14:43:00.109Z,10.40
2022-10-01T14:45:28.978Z,11.65
2022-10-01T14:48:04.891Z,13.65
2022-10-01T14:50:35.782Z,11.75
2022-10-01T14:53:04.129Z,11.30
2022-10-01T14:55:32.764Z,11.98
2022-10-01T14:58:02.695Z,14.43
2022-10-01T15:00:33.435Z,12.68
2022-10-01T15:03:12.720Z,13.57
2022-10-01T15:05:40.959Z,10.82
2022-10-01T15:08:14.394Z,17.98
2022-10-01T15:10:48.774Z,11.73
2022-10-01T15:13:25.568Z,14.88
2022-10-01T15:15:55.263Z,9.60
2022-10-01T15:18:24.179Z,10.48
2022-10-01T15:20:57.879Z,7.13
2022-10-01T15:23:27.581Z,13.90
2022-10-01T15:25:57.821Z,10.90
2022-10-01T15:28:31.796Z,13.52
2022-10-01T15:31:03.345Z,10.57
2022-10-01T15:33:34.013Z,12.13
2022-10-01T15:36:04.589Z,12.98
2022-10-01T15:38:33.909Z,21.55
2022-10-01T15:41:26.858Z,13.60
2022-10-01T15:43:54.649Z,10.63
2022-10-01T15:46:33.177Z,15.77
2022-10-01T15:49:21.724Z,20.27
2022-10-01T15:52:15.109Z,11.52
2022-10-01T15:54:45.503Z,14.35
2022-10-01T15:57:19.727Z,14.02
2022-10-01T15:59:51.466Z,9.60
2022-10-01T16:02:22.643Z,13.13
2022-10-01T16:04:52.875Z,12.50
2022-10-01T16:07:23.359Z,10.07
2022-10-01T16:09:58.713Z,14.95
2022-10-01T16:12:28.989Z,12.90
2022-10-01T16:15:00.722Z,11.23
2022-10-01T16:17:36.296Z,9.52
2022-10-01T16:20:36.718Z,9.38
2022-10-01T16:23:33.171Z,11.00
2022-10-01T16:26:01.523Z,13.32
2022-10-01T16:28:31.940Z,14.40
2022-10-01T16:31:01.707Z,9.30
2022-10-01T16:33:29.771Z,10.68
2022-10-01T16:36:10.489Z,9.75
2022-10-01T16:38:38.581Z,10.90
2022-10-01T16:41:06.926Z,11.02
2022-10-01T16:43:35.055Z,7.35
2022-10-01T16:46:04.721Z,14.32
2022-10-01T16:48:32.984Z,7.32
2022-10-01T16:51:01.069Z,6.85
2022-10-01T16:53:29.604Z,10.75
2022-10-01T16:55:58.181Z,9.35
2022-10-01T16:58:27.765Z,6.50
2022-10-01T17:00:55.835Z,7.93
2022-10-01T17:03:26.972Z,8.50
2022-10-01T17:05:55.104Z,9.25
2022-10-01T17:08:23.106Z,9.88
2022-10-01T17:10:57.690Z,7.55
2022-10-01T17:13:26.742Z,8.88
2022-10-01T17:15:54.945Z,10.48
2022-10-01T17:18:23.306Z,2.97
2022-10-01T17:20:52.781Z,7.00
2022-10-01T17:23:22.313Z,7.13
2022-10-01T17:25:50.550Z,6.05
2022-10-01T17:28:20.991Z,6.93
2022-10-01T17:30:50.329Z,3.95
2022-10-01T17:33:20.320Z,6.32
2022-10-01T17:35:51.998Z,1.58
2022-10-01T17:38:22.116Z,4.68
2022-10-01T17:40:54.243Z,1.60
2022-10-01T17:43:24.865Z,3.63
2022-10-01T17:45:57.674Z,2.45
2022-10-01T17:48:26.490Z,1.75
2022-10-01T17:51:03.513Z,0.50
2022-10-01T17:53:39.746Z,1.73
2022-10-01T17:56:13.365Z,1.85
2022-10-01T17:58:45.203Z,1.58
2022-10-01T18:01:16.055Z,1.30
2022-10-01T18:03:44.430Z,1.55
2022-10-01T18:06:15.325Z,2.17
2022-10-01T18:08:55.224Z,4.78
2022-10-01T18:11:25.250Z,3.38
2022-10-01T18:13:53.591Z,4.63
2022-10-01T18:16:22.809Z,4.07
2022-10-01T18:21:44.655Z,8.95
2022-10-01T18:24:15.346Z,15.10
2022-10-01T18:26:44.689Z,15.20
2022-10-01T18:29:18.101Z,8.35
2022-10-01T18:31:46.878Z,7.88
2022-10-01T18:34:23.577Z,13.77
2022-10-01T18:36:56.709Z,12.38
2022-10-01T18:39:32.798Z,12.82
2022-10-01T18:42:03.077Z,11.20
2022-10-01T18:44:31.146Z,10.73
2022-10-01T18:47:07.198Z,15.95
2022-10-01T18:50:08.981Z,12.50
2022-10-01T18:52:48.810Z,15.05
2022-10-01T18:55:59.941Z,13.13
2022-10-01T18:58:45.370Z,11.73
2022-10-01T19:01:24.185Z,13.88
2022-10-01T19:04:12.264Z,12.75
2022-10-01T19:06:54.755Z,16.85
2022-10-01T19:12:16.276Z,18.15
2022-10-01T19:15:00.552Z,13.77
2022-10-01T19:17:45.644Z,15.93
2022-10-01T19:20:29.725Z,16.42
2022-10-01T19:23:11.432Z,11.35
2022-10-01T19:25:44.706Z,13.68
2022-10-01T19:28:28.516Z,13.45
2022-10-01T19:31:04.436Z,17.35
2022-10-01T19:33:37.648Z,9.85
2022-10-01T19:36:06.867Z,13.05
2022-10-01T19:38:39.955Z,15.50
2022-10-01T19:41:15.947Z,14.90
2022-10-01T19:43:50.615Z,22.08
2022-10-01T19:46:23.995Z,18.63
2022-10-01T19:48:58.106Z,26.80
2022-10-01T19:51:31.857Z,16.05
2022-10-01T19:54:02.501Z,21.02
2022-10-01T19:56:33.102Z,17.50
2022-10-01T19:59:08.527Z,24.50
2022-10-01T20:01:40.232Z,28.15
2022-10-01T20:04:15.887Z,41.38
2022-10-01T20:06:46.925Z,26.75
2022-10-01T20:09:25.918Z,25.63
2022-10-01T20:12:00.601Z,37.05
2022-10-01T20:15:03.936Z,19.75
2022-10-01T20:17:38.797Z,18.55
2022-10-01T20:20:18.648Z,23.63
2022-10-01T20:22:55.357Z,27.70
2022-10-01T20:25:29.195Z,18.60
2022-10-01T20:28:08.122Z,24.60
2022-10-01T20:30:44.940Z,23.73
2022-10-01T20:33:24.121Z,20.92
2022-10-01T20:36:02.720Z,23.17
2022-10-01T20:38:38.028Z,41.75
2022-10-01T20:41:11.164Z,48.83
2022-10-01T20:43:44.608Z,18.77
2022-10-01T20:46:17.250Z,22.13
2022-10-01T20:48:48.751Z,12.60
2022-10-01T20:51:23.103Z,12.43
2022-10-01T20:53:55.264Z,9.40
2022-10-01T20:56:29.779Z,8.40
2022-10-01T20:59:05.219Z,18.55
2022-10-01T21:01:40.983Z,13.38
2022-10-01T21:04:18.488Z,22.08
2022-10-01T21:06:49.273Z,18.63
2022-10-01T21:09:24.979Z,21.25
2022-10-01T21:12:00.526Z,21.77
2022-10-01T21:14:34.500Z,15.05
2022-10-01T21:17:24.537Z,19.45
2022-10-01T21:20:06.384Z,29.35
2022-10-01T21:22:49.577Z,23.08
2022-10-01T21:25:30.054Z,28.65
2022-10-01T21:28:19.465Z,20.10
2022-10-01T21:31:00.989Z,25.90
2022-10-01T21:33:34.589Z,34.27
2022-10-01T21:36:08.350Z,34.95
2022-10-01T21:38:45.048Z,30.77
2022-10-01T21:41:48.401Z,31.60
2022-10-01T21:44:41.454Z,19.17
2022-10-01T21:47:19.084Z,29.27
2022-10-01T21:50:02.670Z,27.60
2022-10-01T21:52:43.909Z,27.80
2022-10-01T21:55:36.745Z,24.50
2022-10-01T21:58:23.803Z,19.83
2022-10-01T22:01:01.408Z,29.45
2022-10-01T22:03:36.311Z,37.83
2022-10-01T22:06:15.015Z,33.20
2022-10-01T22:08:57.642Z,30.65
2022-10-01T22:11:31.850Z,33.03
2022-10-01T22:14:02.638Z,19.50
2022-10-01T22:16:36.001Z,22.30
2022-10-01T22:19:11.016Z,18.67
2022-10-01T22:21:44.654Z,21.73
2022-10-01T22:24:19.337Z,29.02
2022-10-01T22:26:54.459Z,25.33
2022-10-01T22:29:28.794Z,18.25
2022-10-01T22:32:02.431Z,28.70
2022-10-01T22:34:36.296Z,24.08
2022-10-01T22:37:11.769Z,42.53
2022-10-01T22:39:43.659Z,35.88
2022-10-01T22:42:16.632Z,20.63
2022-10-01T22:44:44.809Z,40.03
2022-10-01T22:47:40.412Z,31.25
2022-10-01T22:50:21.088Z,63.70
2022-10-01T22:53:04.283Z,33.53
2022-10-01T22:55:43.163Z,24.45
2022-10-01T22:58:26.033Z,40.53
2022-10-01T23:01:02.637Z,25.92
2022-10-01T23:03:44.455Z,20.55
2022-10-01T23:06:21.989Z,40.13
2022-10-01T23:09:00.003Z,22.70
2022-10-01T23:11:34.672Z,18.83
2022-10-01T23:14:09.403Z,21.17
2022-10-01T23:16:43.914Z,24.63
2022-10-01T23:19:28.127Z,19.75
2022-10-01T23:22:04.098Z,30.17
2022-10-01T23:24:47.262Z,21.52
2022-10-01T23:27:31.910Z,17.92
2022-10-01T23:30:12.029Z,24.15
2022-10-01T23:32:58.110Z,28.17
2022-10-01T23:35:36.652Z,21.17
2022-10-01T23:38:19.610Z,28.10
2022-10-01T23:40:51.836Z,23.83
2022-10-01T23:46:00.769Z,22.23
2022-10-01T23:48:35.065Z,21.15
2022-10-01T23:51:07.910Z,22.40
2022-10-01T23:53:41.679Z,28.70
2022-10-01T23:56:34.559Z,28.17
2022-10-01T23:59:10.258Z,16.25
